createdAt,value
2023-04-02T00:04:24.596Z,7.44
2023-04-02T00:09:34.946Z,7.3
2023-04-02T00:14:44.747Z,7.26
2023-04-02T00:19:53.222Z,7.26
2023-04-02T01:27:25.156Z,7.12
2023-04-02T01:32:35.114Z,7.12
2023-04-02T01:37:43.256Z,6.95
2023-04-02T01:42:53.666Z,6.95
2023-04-02T01:48:01.779Z,7.16
2023-04-02T01:53:11.274Z,7.16
2023-04-02T01:58:22.954Z,7.16
2023-04-02T02:03:33.357Z,7.16
2023-04-02T02:08:42.492Z,7.1
2023-04-02T02:13:50.334Z,7.1
2023-04-02T02:18:59.819Z,7.13
2023-04-02T02:24:09.219Z,7.13
2023-04-02T02:29:18.958Z,7.09
2023-04-02T02:34:28.745Z,7.09
2023-04-02T02:39:38.480Z,7.03
2023-04-02T02:44:47.692Z,7.03
2023-04-02T02:49:59.300Z,6.99
2023-04-02T02:55:06.536Z,6.98
2023-04-02T03:00:14.972Z,6.98
2023-04-02T03:05:25.388Z,7.1
2023-04-02T03:10:35.113Z,7.1
2023-04-02T03:15:45.070Z,7.02
2023-04-02T03:20:53.976Z,7.02
2023-04-02T03:26:03.760Z,7.04
2023-04-02T03:31:13.070Z,7.04
2023-04-02T03:36:23.675Z,7.14
2023-04-02T03:41:33.685Z,7.14
2023-04-02T03:46:43.069Z,7.12
2023-04-02T03:51:52.557Z,7.12
2023-04-02T03:57:01.205Z,7.16
2023-04-02T04:02:09.779Z,7.16
2023-04-02T04:07:19.280Z,7.23
2023-04-02T04:12:27.840Z,7.23
2023-04-02T04:17:37.092Z,7.29
2023-04-02T04:22:45.350Z,7.29
2023-04-02T04:27:55.116Z,7.29
2023-04-02T04:33:05.278Z,7.29
2023-04-02T04:38:13.335Z,7.18
2023-04-02T04:43:22.497Z,7.18
2023-04-02T04:48:30.951Z,7.27
2023-04-02T04:53:40.729Z,7.27
2023-04-02T04:58:50.504Z,7.47
2023-04-02T05:03:59.657Z,7.47
2023-04-02T05:09:08.734Z,7.39
2023-04-02T05:14:17.846Z,7.39
2023-04-02T05:19:28.242Z,7.43
2023-04-02T05:24:38.043Z,7.43
2023-04-02T05:29:46.502Z,7.86
2023-04-02T05:34:56.290Z,7.86
2023-04-02T05:40:04.716Z,7.63
2023-04-02T05:45:15.124Z,7.63
2023-04-02T05:50:24.261Z,7.58
2023-04-02T06:31:33.509Z,7.44
2023-04-02T06:36:43.125Z,7.49
2023-04-02T06:41:52.910Z,7.49
2023-04-02T06:47:02.820Z,7.19
2023-04-02T06:52:12.430Z,7.19
2023-04-02T06:57:21.843Z,7.23
2023-04-02T07:02:32.304Z,7.23
2023-04-02T07:07:41.747Z,7.28
2023-04-02T07:12:51.489Z,7.28
2023-04-02T07:18:01.765Z,7.56
2023-04-02T07:23:10.321Z,7.56
2023-04-02T07:28:23.379Z,7.17
2023-04-02T07:33:29.188Z,7.17
2023-04-02T07:38:39.590Z,7.41
2023-04-02T07:43:49.369Z,7.41
2023-04-02T07:48:57.841Z,7.09
2023-04-02T07:54:07.599Z,7.09
2023-04-02T07:59:17.410Z,7.08
2023-04-02T08:04:27.133Z,7.08
2023-04-02T08:09:35.636Z,7.14
2023-04-02T08:14:44.096Z,7.14
2023-04-02T08:19:55.651Z,7.03
2023-04-02T08:25:02.370Z,7.03
2023-04-02T08:30:11.435Z,7.06
2023-04-02T08:35:22.522Z,7.06
2023-04-02T08:40:32.251Z,7.11
2023-04-02T08:45:42.131Z,7.11
2023-04-02T08:50:49.865Z,6.83
2023-04-02T08:55:59.612Z,7
2023-04-02T09:01:08.111Z,7
2023-04-02T09:06:17.837Z,7.07
2023-04-02T09:11:27.635Z,7.07
2023-04-02T09:16:36.736Z,7.16
2023-04-02T09:21:45.855Z,7.16
2023-04-02T10:08:08.078Z,6.94
2023-04-02T10:13:17.769Z,6.94
2023-04-02T10:18:27.502Z,6.92
2023-04-02T10:23:37.858Z,6.92
2023-04-02T10:28:46.989Z,6.86
2023-04-02T10:33:56.073Z,6.86
2023-04-02T10:39:05.834Z,6.89
2023-04-02T10:44:21.127Z,6.89
2023-04-02T10:49:24.959Z,7.08
2023-04-02T10:54:34.502Z,7.08
2023-04-02T10:59:44.910Z,6.8
2023-04-02T11:05:02.273Z,6.8
2023-04-02T11:10:03.157Z,6.96
2023-04-02T11:15:11.624Z,6.96
2023-04-02T11:20:21.361Z,6.88
2023-04-02T11:25:29.879Z,6.88
2023-04-02T11:30:40.239Z,6.9
2023-04-02T11:35:49.010Z,6.9
2023-04-02T11:40:58.605Z,7.18
2023-04-02T11:46:06.958Z,6.98
2023-04-02T11:51:16.227Z,6.98
2023-04-02T11:56:25.206Z,7.05
2023-04-02T12:01:33.698Z,7.05
2023-04-02T12:06:42.804Z,7.01
2023-04-02T12:11:52.832Z,7.01
2023-04-02T12:17:02.016Z,7.03
2023-04-02T12:22:11.447Z,7.03
2023-04-02T12:27:20.550Z,6.98
2023-04-02T12:32:30.697Z,6.98
2023-04-02T12:37:37.513Z,6.94
2023-04-02T12:42:46.010Z,6.94
2023-04-02T12:47:54.750Z,6.97
2023-04-02T12:53:04.276Z,6.97
2023-04-02T12:58:12.737Z,7.13
2023-04-02T13:19:34.125Z,7
2023-04-02T13:25:29.231Z,7
2023-04-02T13:30:46.003Z,7.19
2023-04-02T13:36:02.542Z,7.19
2023-04-02T13:41:17.044Z,7.08
2023-04-02T13:46:33.194Z,7.1
2023-04-02T13:47:42.312Z,7.1
2023-04-02T13:52:52.076Z,7.1
2023-04-02T13:58:40.253Z,7.06
2023-04-02T14:03:58.578Z,7.06
2023-04-02T14:19:23.144Z,7.1
2023-04-02T14:24:23.400Z,7.1
2023-04-02T14:25:57.617Z,7.1
2023-04-02T14:31:06.773Z,7.16
2023-04-02T14:36:21.345Z,7.16
2023-04-02T14:41:37.580Z,7.06
2023-04-02T14:46:54.386Z,7.12
2023-04-02T14:52:10.464Z,7.12
2023-04-02T14:57:27.024Z,7.26
2023-04-02T15:02:42.487Z,7.26
2023-04-02T15:07:57.756Z,7.01
2023-04-02T15:13:15.144Z,7.01
2023-04-02T15:18:31.293Z,7.18
2023-04-02T15:23:47.454Z,7.18
2023-04-02T15:37:53.515Z,7.26
2023-04-02T15:51:37.312Z,7.14
2023-04-02T15:56:45.783Z,7.11
2023-04-02T16:01:55.459Z,7.11
2023-04-02T16:07:05.234Z,7.12
2023-04-02T16:12:13.070Z,7.12
2023-04-02T16:17:26.418Z,7.09
2023-04-02T16:22:30.648Z,7.09
2023-04-02T16:27:40.399Z,7.1
2023-04-02T16:32:49.472Z,7.1
2023-04-02T16:37:58.729Z,7.12
2023-04-02T16:43:07.835Z,7.12
2023-04-02T16:48:16.251Z,7.01
2023-04-02T16:53:24.740Z,7.01
2023-04-02T16:58:33.212Z,7.15
2023-04-02T17:03:43.536Z,7.15
2023-04-02T17:08:52.078Z,7.11
2023-04-02T17:14:01.257Z,7.11
2023-04-02T17:19:09.698Z,7.14
2023-04-02T17:24:18.799Z,7.14
2023-04-02T17:29:27.932Z,7.07
2023-04-02T17:34:37.040Z,7.07
2023-04-02T17:39:46.252Z,7.06
2023-04-02T17:44:55.295Z,7.06
2023-04-02T17:50:03.757Z,7.11
2023-04-02T17:55:12.880Z,7.11
2023-04-02T18:00:23.319Z,7.4
2023-04-02T18:05:33.093Z,7.4
2023-04-02T18:10:41.548Z,7.1
2023-04-02T18:15:49.989Z,7.1
2023-04-02T18:20:58.481Z,7.11
2023-04-02T18:26:07.598Z,7.11
2023-04-02T18:31:17.547Z,6.99
2023-04-02T18:36:27.139Z,6.99
2023-04-02T18:41:35.636Z,7.16
2023-04-02T19:27:57.132Z,7.23
2023-04-02T19:33:07.072Z,7.23
2023-04-02T19:38:14.673Z,7.02
2023-04-02T19:43:24.401Z,7.02
2023-04-02T19:48:32.862Z,7.1
2023-04-02T19:53:41.400Z,7.1
2023-04-02T19:58:51.184Z,7.03
2023-04-02T20:04:01.286Z,7.03
2023-04-02T20:09:09.353Z,7.21
2023-04-02T20:14:17.916Z,7.21
2023-04-02T20:19:26.336Z,7.23
2023-04-02T20:24:35.466Z,7.23
2023-04-02T20:29:44.564Z,7.21
2023-04-02T20:34:54.357Z,7.21
2023-04-02T20:40:02.828Z,7.32
2023-04-02T20:45:12.573Z,7.32
2023-04-02T20:50:22.346Z,7.16
2023-04-02T20:55:30.805Z,7.16
2023-04-02T21:00:41.050Z,7.18
2023-04-02T21:05:49.983Z,7.18
2023-04-02T21:11:00.134Z,7.15
2023-04-02T21:16:10.096Z,7.15
2023-04-02T21:21:19.651Z,7.23
2023-04-02T21:26:28.728Z,7.23
2023-04-02T21:31:38.854Z,7.31
2023-04-02T21:36:48.266Z,7.31
2023-04-02T21:41:57.338Z,7.45
2023-04-02T21:47:07.363Z,7.45
2023-04-02T21:52:16.255Z,7.34
2023-04-02T21:57:24.984Z,7.34
2023-04-02T22:02:34.626Z,7.28
2023-04-02T22:07:42.973Z,7.25
2023-04-02T22:12:52.108Z,7.25
2023-04-02T22:18:01.498Z,7.32
2023-04-02T23:04:22.749Z,7.28
2023-04-02T23:09:32.424Z,7.33
2023-04-02T23:14:41.497Z,7.33
2023-04-02T23:19:49.395Z,7.62
2023-04-02T23:24:58.548Z,7.62
2023-04-02T23:30:08.249Z,7.47
2023-04-02T23:35:17.392Z,7.47
2023-04-02T23:40:25.852Z,7.39
2023-04-02T23:45:35.695Z,7.39
2023-04-02T23:50:45.431Z,7.69
2023-04-02T23:55:54.038Z,7.69
